Time;durP1;ratioP1;P1;durP2;ratioP2;P2;SDS_P1;SDS_P2;PMS_P1;PMS_P2;Temp;Humidity;BMP_temperature;BMP_pressure;BME280_temperature;BME280_humidity;BME280_pressure;Samples;Min_cycle;Max_cycle;Signal;HPM_P1;HPM_P2
2022/05/25 00:00:43;;;;;;;4.45;1.20;;;14.60;95.70;;;;;;5011915;28;20026;-75
2022/05/25 00:03:09;;;;;;;3.17;1.38;;;14.60;95.60;;;;;;5012446;28;20127;-75
2022/05/25 00:05:36;;;;;;;6.50;1.52;;;14.60;95.40;;;;;;5011879;28;20037;-75
2022/05/25 00:08:02;;;;;;;2.30;1.40;;;14.70;95.40;;;;;;5011972;28;20534;-75
2022/05/25 00:10:28;;;;;;;6.55;1.40;;;14.70;95.30;;;;;;5011817;28;20455;-74
2022/05/25 00:12:53;;;;;;;2.05;1.45;;;14.70;95.20;;;;;;5011656;28;20043;-74
2022/05/25 00:15:19;;;;;;;4.07;1.50;;;14.70;95.20;;;;;;5027546;28;20029;-74
2022/05/25 00:17:45;;;;;;;2.67;1.42;;;14.70;94.90;;;;;;5012002;28;20037;-73
2022/05/25 00:20:11;;;;;;;2.35;1.27;;;14.80;95.00;;;;;;5011815;28;20467;-75
2022/05/25 00:22:44;;;;;;;3.25;1.35;;;14.70;94.80;;;;;;5027028;28;20500;-73
2022/05/25 00:25:14;;;;;;;2.25;1.40;;;14.80;94.90;;;;;;5011692;28;20363;-76
2022/05/25 00:27:41;;;;;;;2.92;1.60;;;14.80;94.70;;;;;;5011882;28;20455;-74
2022/05/25 00:30:07;;;;;;;3.63;1.55;;;14.70;94.70;;;;;;5011537;28;20180;-74
2022/05/25 00:32:33;;;;;;;2.97;1.20;;;14.70;94.70;;;;;;5011302;28;20025;-75
2022/05/25 00:34:59;;;;;;;1.42;1.23;;;14.70;94.80;;;;;;5011348;28;20057;-75
2022/05/25 00:37:25;;;;;;;2.67;1.42;;;14.70;94.80;;;;;;5010265;28;20036;-75
2022/05/25 00:39:50;;;;;;;3.30;1.38;;;14.70;94.90;;;;;;5011081;28;20119;-76
2022/05/25 00:42:16;;;;;;;2.17;1.45;;;14.70;94.80;;;;;;5011838;28;20044;-75
2022/05/25 00:44:42;;;;;;;6.72;1.20;;;14.70;94.80;;;;;;5011286;28;20049;-74
2022/05/25 00:47:09;;;;;;;4.50;1.50;;;14.70;94.90;;;;;;5011412;28;20038;-76
2022/05/25 00:49:36;;;;;;;8.63;1.53;;;14.70;94.80;;;;;;5026564;28;20092;-75
2022/05/25 00:52:06;;;;;;;5.60;1.50;;;14.70;94.80;;;;;;5011360;28;20048;-76
2022/05/25 00:54:45;;;;;;;2.28;1.02;;;14.80;94.80;;;;;;5027070;28;20440;-74
2022/05/25 00:57:17;;;;;;;5.00;2.00;;;14.70;94.60;;;;;;5010815;28;20490;-75
2022/05/25 01:00:12;;;;;;;6.47;1.63;;;14.70;94.60;;;;;;5010946;28;20034;-73
2022/05/25 01:02:43;;;;;;;2.45;1.33;;;14.70;94.60;;;;;;5009772;28;20034;-75
2022/05/25 01:05:10;;;;;;;3.65;1.30;;;14.70;94.50;;;;;;5010877;28;20033;-74
2022/05/25 01:07:49;;;;;;;2.50;1.58;;;14.70;94.60;;;;;;5011073;28;20050;-75
2022/05/25 01:10:48;;;;;;;1.98;1.25;;;14.70;94.50;;;;;;5010872;28;20041;-76
2022/05/25 01:14:05;;;;;;;4.07;1.13;;;14.70;94.70;;;;;;5010907;28;20456;-75
2022/05/25 01:16:57;;;;;;;2.55;1.30;;;14.70;94.50;;;;;;4977091;28;20061;-74
2022/05/25 01:19:37;;;;;;;2.50;1.17;;;14.70;94.50;;;;;;5009540;28;20034;-77
2022/05/25 01:22:24;;;;;;;5.38;1.80;;;14.70;94.40;;;;;;5010860;28;20076;-74
2022/05/25 01:25:27;;;;;;;2.78;1.17;;;14.70;94.40;;;;;;5010621;28;20018;-74
2022/05/25 01:27:54;;;;;;;1.58;1.00;;;14.70;94.40;;;;;;5025909;28;20420;-75
2022/05/25 01:30:28;;;;;;;1.83;0.93;;;14.70;94.40;;;;;;5010953;28;20021;-74
2022/05/25 01:33:33;;;;;;;2.15;1.20;;;14.60;94.40;;;;;;5010608;28;20022;-75
2022/05/25 01:36:33;;;;;;;3.72;1.30;;;14.60;94.40;;;;;;5020219;28;20049;-74
2022/05/25 01:39:05;;;;;;;5.70;1.30;;;14.60;94.60;;;;;;5029174;28;20033;-73
2022/05/25 01:41:39;;;;;;;3.40;1.20;;;14.60;94.60;;;;;;5030130;28;20057;-73
2022/05/25 01:44:10;;;;;;;3.80;1.30;;;14.60;94.60;;;;;;5030395;28;20414;-75
2022/05/25 01:46:43;;;;;;;2.58;1.05;;;14.60;94.70;;;;;;5030379;28;20071;-75
2022/05/25 01:49:16;;;;;;;2.08;1.08;;;14.60;94.70;;;;;;5030360;28;20106;-75
2022/05/25 01:51:47;;;;;;;1.70;1.23;;;14.60;94.50;;;;;;5030986;28;20027;-75
2022/05/25 01:54:18;;;;;;;3.20;1.63;;;14.50;94.50;;;;;;5030394;28;20466;-74
2022/05/25 01:56:49;;;;;;;1.73;1.23;;;14.50;94.90;;;;;;5029289;28;20442;-75
2022/05/25 01:59:17;;;;;;;2.22;1.20;;;14.50;94.50;;;;;;5030513;28;20045;-75
2022/05/25 02:04:19;;;;;;;4.45;1.50;;;14.50;94.50;;;;;;5030059;28;20037;-76
2022/05/25 02:04:40;;;;;;;1.65;1.15;;;14.50;94.50;;;;;;5030016;28;20044;-75
2022/05/25 02:07:14;;;;;;;1.63;0.95;;;14.50;94.50;;;;;;5030230;28;20119;-76
2022/05/25 02:09:58;;;;;;;3.45;1.55;;;14.50;94.40;;;;;;5032272;28;20029;-74
2022/05/25 02:12:51;;;;;;;1.95;1.27;;;14.60;94.50;;;;;;5034094;28;20042;-75
2022/05/25 02:15:25;;;;;;;3.95;1.80;;;14.60;94.50;;;;;;5054139;28;20363;-73
2022/05/25 02:18:03;;;;;;;2.45;1.67;;;14.50;94.40;;;;;;5053760;28;20060;-74
2022/05/25 02:20:36;;;;;;;3.03;1.67;;;14.50;94.50;;;;;;5053657;28;20616;-75
2022/05/25 02:23:13;;;;;;;2.55;1.50;;;14.40;94.70;;;;;;5042691;28;20113;-74
2022/05/25 02:26:17;;;;;;;3.85;1.90;;;14.50;94.60;;;;;;5033658;28;20041;-74
2022/05/25 02:29:07;;;;;;;4.53;1.95;;;14.50;94.70;;;;;;5033438;28;20033;-74
2022/05/25 02:31:39;;;;;;;3.50;1.75;;;14.50;94.70;;;;;;5026918;28;20367;-75
2022/05/25 02:34:09;;;;;;;2.60;1.75;;;14.50;94.70;;;;;;5033468;28;20103;-74
2022/05/25 02:36:38;;;;;;;3.95;1.65;;;14.40;94.70;;;;;;5033841;28;20115;-74
2022/05/25 02:39:06;;;;;;;2.80;1.85;;;14.40;94.70;;;;;;5033413;28;20041;-74
2022/05/25 02:41:33;;;;;;;;;;;14.40;94.80;;;;;;5033584;28;20042;-75
2022/05/25 02:44:01;;;;;;;3.13;1.65;;;14.30;95.00;;;;;;5033466;28;19909;-75
2022/05/25 02:46:27;;;;;;;3.72;2.05;;;14.30;95.00;;;;;;5033258;28;20538;-75
2022/05/25 02:48:52;;;;;;;3.45;2.50;;;14.40;94.90;;;;;;5033291;28;20061;-74
2022/05/25 02:51:18;;;;;;;3.15;2.33;;;14.40;95.00;;;;;;5032652;28;20022;-75
2022/05/25 02:53:45;;;;;;;3.50;2.13;;;14.40;95.00;;;;;;5033230;28;20030;-74
2022/05/25 02:56:11;;;;;;;4.75;2.25;;;14.40;94.90;;;;;;5032220;28;20033;-74
2022/05/25 02:58:36;;;;;;;5.82;2.67;;;14.30;95.10;;;;;;5032059;28;20025;-75
2022/05/25 03:01:05;;;;;;;6.38;2.35;;;14.30;95.10;;;;;;5033179;28;20034;-74
2022/05/25 03:03:35;;;;;;;4.97;2.25;;;14.30;95.20;;;;;;5033267;28;20348;-74
2022/05/25 03:06:05;;;;;;;4.15;2.45;;;14.30;95.20;;;;;;5032866;28;20041;-74
2022/05/25 03:08:32;;;;;;;4.53;2.20;;;14.30;95.30;;;;;;5032898;28;20033;-74
2022/05/25 03:10:58;;;;;;;5.53;2.88;;;14.20;95.40;;;;;;5032788;28;20104;-74
2022/05/25 03:13:23;;;;;;;6.30;2.65;;;14.20;95.30;;;;;;5032652;28;20367;-73
2022/05/25 03:15:49;;;;;;;4.43;2.60;;;14.20;95.20;;;;;;5032605;28;20028;-74
2022/05/25 03:18:15;;;;;;;9.95;3.25;;;14.20;95.50;;;;;;5032002;28;20025;-73
2022/05/25 03:20:41;;;;;;;3.83;2.70;;;14.20;95.40;;;;;;5031293;28;20036;-73
2022/05/25 03:23:07;;;;;;;7.50;3.30;;;14.20;95.40;;;;;;5032614;28;20359;-74
2022/05/25 03:25:32;;;;;;;4.22;2.97;;;14.10;95.60;;;;;;5032599;28;20128;-74
2022/05/25 03:27:58;;;;;;;7.43;3.90;;;14.20;95.60;;;;;;5031254;28;20102;-73
2022/05/25 03:30:24;;;;;;;4.70;3.05;;;14.20;95.70;;;;;;5032883;28;20060;-73
2022/05/25 03:32:52;;;;;;;6.63;3.15;;;14.20;95.60;;;;;;5031329;28;20025;-75
2022/05/25 03:35:18;;;;;;;9.38;4.15;;;14.20;95.70;;;;;;5032396;28;20175;-74
2022/05/25 03:37:43;;;;;;;4.60;3.58;;;14.20;95.70;;;;;;5032209;28;20470;-74
2022/05/25 03:40:12;;;;;;;5.05;3.35;;;14.20;95.80;;;;;;5030720;28;20064;-74
2022/05/25 03:42:42;;;;;;;6.00;4.15;;;14.10;95.60;;;;;;5031436;28;20164;-75
2022/05/25 03:45:08;;;;;;;5.43;3.95;;;14.10;95.70;;;;;;5030957;28;20152;-74
2022/05/25 03:47:34;;;;;;;6.72;3.97;;;14.00;95.90;;;;;;5032124;28;20061;-74
2022/05/25 03:50:00;;;;;;;7.90;4.57;;;14.10;95.90;;;;;;5032034;28;20110;-75
2022/05/25 03:52:25;;;;;;;7.78;3.92;;;14.10;95.90;;;;;;5032017;28;20116;-74
2022/05/25 03:54:52;;;;;;;5.38;4.00;;;14.10;95.90;;;;;;5030838;28;20029;-74
2022/05/25 03:57:18;;;;;;;9.73;4.50;;;14.20;95.80;;;;;;5031304;28;20069;-74
2022/05/25 03:59:45;;;;;;;9.43;4.90;;;14.20;95.70;;;;;;5031744;28;20084;-74
2022/05/25 04:02:11;;;;;;;7.95;4.55;;;14.10;95.80;;;;;;5032005;28;20171;-73
2022/05/25 04:04:37;;;;;;;8.25;3.95;;;14.10;95.90;;;;;;5032144;28;20128;-74
2022/05/25 04:07:03;;;;;;;6.78;4.55;;;14.10;96.10;;;;;;5030481;28;20108;-75
2022/05/25 04:09:29;;;;;;;7.75;4.22;;;14.20;96.00;;;;;;5032009;28;20087;-75
2022/05/25 04:11:54;;;;;;;6.78;4.38;;;14.20;95.90;;;;;;5031872;28;20136;-75
2022/05/25 04:14:20;;;;;;;8.85;4.75;;;14.20;96.00;;;;;;5031529;28;20037;-75
2022/05/25 04:16:46;;;;;;;8.38;4.80;;;14.20;96.00;;;;;;5031413;28;20114;-74
2022/05/25 04:19:12;;;;;;;8.60;4.50;;;14.20;95.80;;;;;;5030524;28;20328;-74
2022/05/25 04:21:39;;;;;;;8.43;4.97;;;14.20;95.90;;;;;;5031933;28;20039;-73
2022/05/25 04:24:06;;;;;;;9.63;5.50;;;14.10;96.00;;;;;;5030194;28;20037;-74
2022/05/25 04:26:32;;;;;;;8.82;5.13;;;14.20;96.10;;;;;;5031167;28;20506;-74
2022/05/25 04:29:00;;;;;;;8.02;4.95;;;14.20;96.00;;;;;;5031212;28;20037;-74
2022/05/25 04:31:26;;;;;;;7.35;4.53;;;14.20;96.10;;;;;;5031037;28;20036;-74
2022/05/25 04:33:52;;;;;;;8.07;4.80;;;14.20;96.10;;;;;;5030669;28;20021;-75
2022/05/25 04:36:18;;;;;;;7.40;4.80;;;14.20;96.00;;;;;;5031560;28;20025;-74
2022/05/25 04:38:43;;;;;;;11.25;5.40;;;14.20;96.20;;;;;;5031181;28;20029;-73
2022/05/25 04:41:09;;;;;;;10.63;4.97;;;14.20;96.00;;;;;;5029624;28;20060;-74
2022/05/25 04:43:34;;;;;;;8.00;4.90;;;14.40;95.90;;;;;;5030795;28;20419;-73
2022/05/25 04:46:07;;;;;;;10.07;5.00;;;14.30;96.00;;;;;;5030549;28;20542;-74
2022/05/25 04:48:32;;;;;;;6.97;4.72;;;14.30;95.90;;;;;;5031168;28;20029;-73
2022/05/25 04:50:58;;;;;;;9.20;4.82;;;14.30;95.90;;;;;;5030683;28;20088;-74
2022/05/25 04:53:24;;;;;;;8.82;5.38;;;14.40;95.90;;;;;;5029447;28;20029;-74
2022/05/25 04:58:43;;;;;;;9.20;5.55;;;14.40;96.00;;;;;;5030635;28;20078;-74
2022/05/25 05:01:11;;;;;;;10.52;4.97;;;14.50;96.00;;;;;;5030521;28;20475;-74
2022/05/25 05:03:37;;;;;;;8.05;4.95;;;14.50;95.80;;;;;;5031146;28;20032;-75
2022/05/25 05:06:05;;;;;;;9.23;5.57;;;14.50;95.70;;;;;;5030827;28;20030;-74
2022/05/25 05:08:31;;;;;;;12.13;6.00;;;14.60;95.70;;;;;;5030690;28;20498;-73
2022/05/25 05:10:57;;;;;;;8.63;5.20;;;14.60;95.60;;;;;;5030588;28;20120;-74
2022/05/25 05:13:23;;;;;;;11.95;6.57;;;14.70;95.60;;;;;;5030415;28;20212;-75
2022/05/25 05:15:54;;;;;;;11.45;5.80;;;14.70;95.50;;;;;;5030268;28;20032;-75
2022/05/25 05:18:23;;;;;;;9.13;5.80;;;14.80;95.60;;;;;;5030732;28;20478;-76
2022/05/25 05:20:49;;;;;;;11.15;6.30;;;14.80;95.50;;;;;;5030305;28;20041;-74
2022/05/25 05:23:15;;;;;;;11.82;6.43;;;14.90;95.50;;;;;;5030183;28;20021;-75
2022/05/25 05:25:41;;;;;;;10.70;6.72;;;14.80;95.60;;;;;;5029778;28;20154;-75
2022/05/25 05:28:11;;;;;;;13.93;6.47;;;14.80;95.70;;;;;;5030203;28;20459;-79
2022/05/25 05:30:54;;;;;;;11.18;6.63;;;14.90;95.60;;;;;;5031929;28;20091;-77
2022/05/25 05:33:24;;;;;;;13.48;7.10;;;15.00;95.50;;;;;;5029767;28;20048;-77
2022/05/25 05:36:13;;;;;;;9.10;5.80;;;15.10;95.40;;;;;;5030066;28;20106;-73
2022/05/25 05:38:53;;;;;;;11.50;7.15;;;15.30;95.20;;;;;;5029498;28;20037;-74
2022/05/25 05:41:22;;;;;;;10.05;7.07;;;15.40;95.00;;;;;;5030217;28;20098;-75
2022/05/25 05:43:49;;;;;;;11.23;6.70;;;15.60;94.90;;;;;;5032050;28;20617;-76
2022/05/25 05:46:15;;;;;;;15.30;7.10;;;15.80;94.50;;;;;;5032980;28;20041;-76
2022/05/25 05:48:41;;;;;;;13.93;8.45;;;16.00;94.30;;;;;;5033560;28;20029;-76
2022/05/25 05:51:08;;;;;;;20.20;9.13;;;16.20;94.10;;;;;;5034388;28;20069;-74
2022/05/25 05:53:35;;;;;;;9.27;6.63;;;16.30;94.00;;;;;;5033045;28;20541;-73
2022/05/25 05:56:04;;;;;;;13.65;8.68;;;16.20;93.70;;;;;;5033716;28;20037;-73
2022/05/25 05:58:30;;;;;;;13.50;7.43;;;16.30;93.90;;;;;;5033893;28;20049;-73
2022/05/25 06:00:56;;;;;;;11.43;7.10;;;16.50;93.60;;;;;;5032710;28;20364;-72
2022/05/25 06:03:21;;;;;;;11.02;6.38;;;16.60;93.70;;;;;;5034123;28;20120;-73
2022/05/25 06:05:47;;;;;;;11.60;7.32;;;17.00;93.80;;;;;;5033551;28;20026;-72
2022/05/25 06:08:23;;;;;;;14.27;6.93;;;17.10;93.20;;;;;;5033350;28;20036;-73
2022/05/25 06:10:49;;;;;;;14.95;7.15;;;17.10;93.20;;;;;;5033808;28;20036;-71
2022/05/25 06:13:15;;;;;;;10.43;7.20;;;17.10;92.70;;;;;;5033543;28;20029;-73
2022/05/25 06:21:16;;;;;;;12.18;7.55;;;16.80;93.00;;;;;;5033539;28;20041;-72
2022/05/25 06:23:42;;;;;;;12.85;7.40;;;16.70;93.20;;;;;;5033398;28;20030;-74
2022/05/25 06:26:07;;;;;;;12.02;7.57;;;16.70;93.40;;;;;;5033436;28;20059;-76
2022/05/25 06:28:33;;;;;;;10.65;6.55;;;16.70;92.80;;;;;;5033394;28;20034;-74
2022/05/25 06:30:59;;;;;;;14.52;7.78;;;16.70;93.00;;;;;;5033037;28;20457;-73
2022/05/25 06:33:25;;;;;;;11.00;6.38;;;16.80;92.90;;;;;;5033538;28;20021;-73
2022/05/25 06:35:51;;;;;;;11.38;7.70;;;16.90;93.00;;;;;;5033151;28;20159;-73
2022/05/25 06:38:17;;;;;;;12.38;7.55;;;16.80;92.60;;;;;;5031892;28;20104;-76
2022/05/25 06:40:42;;;;;;;11.18;7.35;;;16.70;92.70;;;;;;5032643;28;20137;-75
2022/05/25 06:43:08;;;;;;;13.00;7.72;;;16.60;92.90;;;;;;5033012;28;20328;-74
2022/05/25 06:45:34;;;;;;;13.90;7.55;;;16.70;92.90;;;;;;5033839;28;20052;-74
2022/05/25 06:48:02;;;;;;;12.73;6.72;;;16.70;93.00;;;;;;5033404;28;20026;-75
2022/05/25 06:50:28;;;;;;;9.65;6.60;;;16.80;93.00;;;;;;5033180;28;20064;-76
2022/05/25 06:52:54;;;;;;;10.73;6.53;;;16.80;92.90;;;;;;5032696;28;20061;-81
2022/05/25 06:55:19;;;;;;;10.38;6.50;;;16.70;92.90;;;;;;5032476;28;20050;-76
2022/05/25 06:57:45;;;;;;;14.45;6.35;;;16.60;92.80;;;;;;5032674;28;20029;-74
2022/05/25 07:00:14;;;;;;;10.55;5.80;;;16.60;92.80;;;;;;5032977;28;20021;-77
2022/05/25 07:02:40;;;;;;;9.77;5.40;;;16.60;92.80;;;;;;5031573;28;20054;-75
2022/05/25 07:05:06;;;;;;;8.52;5.13;;;16.70;92.70;;;;;;5032514;28;20037;-74
2022/05/25 07:07:32;;;;;;;8.27;4.55;;;16.70;92.60;;;;;;5032553;28;20068;-77
2022/05/25 07:09:58;;;;;;;8.70;4.28;;;16.80;92.50;;;;;;5031480;28;20079;-77
2022/05/25 07:12:24;;;;;;;7.28;4.50;;;16.90;92.50;;;;;;5032913;28;20026;-74
2022/05/25 07:14:50;;;;;;;5.88;3.88;;;16.80;92.20;;;;;;5031551;28;20371;-74
2022/05/25 07:17:15;;;;;;;6.38;3.70;;;16.90;92.30;;;;;;5032618;28;20264;-74
2022/05/25 07:19:41;;;;;;;7.70;3.83;;;17.00;92.00;;;;;;5032378;28;20540;-79
2022/05/25 07:22:09;;;;;;;7.57;3.78;;;17.20;92.00;;;;;;5032555;28;20531;-78
2022/05/25 07:24:34;;;;;;;7.18;3.88;;;17.20;91.70;;;;;;5031407;28;20482;-78
2022/05/25 07:27:00;;;;;;;6.80;3.97;;;17.20;91.40;;;;;;5032679;28;20071;-77
2022/05/25 07:29:26;;;;;;;6.13;3.20;;;17.30;91.40;;;;;;5032436;28;20022;-76
2022/05/25 07:31:58;;;;;;;5.80;3.17;;;17.20;90.90;;;;;;5032219;28;20060;-76
2022/05/25 07:34:27;;;;;;;5.47;2.50;;;17.10;90.90;;;;;;5032126;28;20420;-77
2022/05/25 07:37:02;;;;;;;7.72;2.83;;;17.10;90.70;;;;;;5031857;28;20038;-78
2022/05/25 07:39:43;;;;;;;4.65;2.40;;;17.00;90.60;;;;;;5031367;28;20028;-78
2022/05/25 07:42:12;;;;;;;4.60;1.98;;;17.30;90.50;;;;;;5032132;28;20046;-76
2022/05/25 07:44:44;;;;;;;4.60;2.85;;;17.40;89.70;;;;;;5031883;28;20041;-76
2022/05/25 07:47:10;;;;;;;6.85;2.40;;;17.40;90.00;;;;;;5032109;28;20168;-77
2022/05/25 07:49:36;;;;;;;2.95;1.83;;;17.50;89.70;;;;;;5032409;28;20029;-76
2022/05/25 07:52:03;;;;;;;2.80;2.35;;;17.80;89.70;;;;;;5031587;28;20040;-78
2022/05/25 07:54:29;;;;;;;3.38;2.33;;;17.90;89.00;;;;;;5032224;28;20045;-74
2022/05/25 07:56:55;;;;;;;3.65;2.20;;;17.90;88.20;;;;;;5031777;28;20459;-75
2022/05/25 07:59:21;;;;;;;8.55;2.45;;;17.80;87.90;;;;;;5031686;28;20060;-75
2022/05/25 08:07:33;;;;;;;5.00;2.15;;;18.90;86.90;;;;;;5030826;28;20040;-82
2022/05/25 08:10:13;;;;;;;5.03;2.10;;;19.10;85.10;;;;;;5031718;28;20033;-81
2022/05/25 08:12:40;;;;;;;3.95;2.00;;;18.60;83.70;;;;;;5032356;28;20014;-82
2022/05/25 08:15:09;;;;;;;3.13;1.73;;;19.00;84.30;;;;;;5031278;28;20505;-80
2022/05/25 08:17:34;;;;;;;4.63;1.75;;;20.30;83.70;;;;;;5031433;28;20121;-79
2022/05/25 08:20:00;;;;;;;4.25;1.50;;;21.40;76.30;;;;;;5031217;28;20129;-78
2022/05/25 08:22:26;;;;;;;3.05;1.85;;;22.50;75.00;;;;;;5031290;28;20593;-79
2022/05/25 08:24:52;;;;;;;4.85;1.60;;;22.90;72.20;;;;;;5030985;28;20030;-78
2022/05/25 08:27:17;;;;;;;5.10;2.28;;;23.60;70.40;;;;;;5031422;28;20061;-75
2022/05/25 08:29:45;;;;;;;4.32;1.42;;;24.10;69.80;;;;;;5031345;28;20049;-75
2022/05/25 08:32:11;;;;;;;5.40;1.60;;;24.50;66.30;;;;;;5031162;28;20034;-76
2022/05/25 08:34:37;;;;;;;3.03;1.45;;;24.60;63.90;;;;;;5031230;28;20144;-73
2022/05/25 08:37:03;;;;;;;3.78;1.60;;;24.60;63.40;;;;;;5030899;28;20106;-73
2022/05/25 08:39:29;;;;;;;3.00;1.80;;;24.20;64.70;;;;;;5030121;28;20224;-73
2022/05/25 08:41:57;;;;;;;2.17;1.50;;;24.90;64.30;;;;;;5030296;28;20061;-76
2022/05/25 08:44:23;;;;;;;4.07;1.60;;;24.70;60.90;;;;;;5029337;28;20072;-73
2022/05/25 08:46:55;;;;;;;2.28;1.60;;;24.90;62.90;;;;;;5030647;28;20025;-73
2022/05/25 08:49:23;;;;;;;3.40;1.65;;;25.20;62.20;;;;;;5031005;28;20380;-76
2022/05/25 08:51:51;;;;;;;3.25;1.83;;;25.10;64.00;;;;;;5029452;28;20041;-77
2022/05/25 08:54:18;;;;;;;2.95;1.35;;;25.70;61.90;;;;;;5030107;28;20029;-77
2022/05/25 08:56:49;;;;;;;6.95;2.60;;;26.30;61.30;;;;;;5030570;28;20029;-74
2022/05/25 08:59:26;;;;;;;9.05;4.30;;;25.90;59.60;;;;;;5029635;28;20107;-75
2022/05/25 09:02:18;;;;;;;3.90;1.55;;;26.30;57.60;;;;;;5029516;28;20037;-75
2022/05/25 09:05:16;;;;;;;2.97;1.30;;;25.10;58.30;;;;;;5030274;28;20043;-76
2022/05/25 09:08:05;;;;;;;2.70;1.20;;;25.20;58.90;;;;;;5030113;28;20052;-77
2022/05/25 09:10:41;;;;;;;4.75;1.60;;;24.90;58.30;;;;;;5030467;28;20052;-74
2022/05/25 09:13:12;;;;;;;3.10;1.30;;;25.50;60.00;;;;;;5029960;28;20021;-76
2022/05/25 09:16:15;;;;;;;6.40;1.70;;;25.00;59.40;;;;;;5030730;28;20068;-75
2022/05/25 09:18:33;;;;;;;3.13;1.30;;;25.60;58.60;;;;;;5049983;28;20123;-76
2022/05/25 09:21:03;;;;;;;4.80;1.45;;;25.10;59.30;;;;;;5050184;28;20036;-76
2022/05/25 09:23:33;;;;;;;4.60;1.85;;;24.40;58.30;;;;;;5049727;28;20049;-75
2022/05/25 09:25:59;;;;;;;2.15;1.27;;;24.00;58.60;;;;;;5049868;28;20072;-76
2022/05/25 09:28:36;;;;;;;4.38;1.33;;;24.10;59.80;;;;;;5050410;28;20479;-77
2022/05/25 09:31:06;;;;;;;5.88;1.73;;;24.40;60.00;;;;;;5046954;28;20437;-74
2022/05/25 09:33:46;;;;;;;4.65;1.48;;;25.10;57.80;;;;;;5051151;28;20036;-77
2022/05/25 09:36:38;;;;;;;4.55;1.40;;;25.70;56.80;;;;;;5050467;28;20404;-75
2022/05/25 09:39:21;;;;;;;9.70;3.88;;;25.30;56.20;;;;;;5050797;28;20030;-78
2022/05/25 09:41:47;;;;;;;3.22;1.42;;;25.00;57.10;;;;;;5049245;28;20045;-75
2022/05/25 09:44:18;;;;;;;2.05;1.65;;;24.40;57.40;;;;;;5036423;28;20091;-75
2022/05/25 09:46:53;;;;;;;2.63;1.50;;;24.30;58.20;;;;;;5029226;28;20116;-74
2022/05/25 09:49:44;;;;;;;7.18;1.65;;;24.50;57.40;;;;;;5030109;28;20521;-78
2022/05/25 09:52:28;;;;;;;10.02;1.70;;;24.30;58.60;;;;;;5030407;28;20112;-75
2022/05/25 09:55:01;;;;;;;2.67;1.65;;;23.30;59.00;;;;;;5030189;28;20021;-78
2022/05/25 09:57:50;;;;;;;5.47;1.77;;;23.10;59.60;;;;;;5030305;28;20179;-80
2022/05/25 10:00:21;;;;;;;3.83;1.50;;;22.40;59.60;;;;;;5029961;28;20317;-76
2022/05/25 10:02:47;;;;;;;4.60;2.78;;;22.10;60.20;;;;;;5030073;28;20478;-77
2022/05/25 10:05:13;;;;;;;3.72;1.58;;;22.10;59.60;;;;;;5029999;28;20034;-77
2022/05/25 10:07:49;;;;;;;6.03;1.40;;;22.00;58.70;;;;;;5029929;28;20036;-77
2022/05/25 10:10:14;;;;;;;4.65;1.75;;;21.80;59.60;;;;;;5029902;28;20045;-79
2022/05/25 10:12:40;;;;;;;6.10;2.05;;;21.60;59.90;;;;;;5030209;28;20352;-79
2022/05/25 10:15:08;;;;;;;8.57;5.50;;;21.60;60.90;;;;;;5029420;28;20100;-77
2022/05/25 10:17:47;;;;;;;5.07;1.55;;;21.80;60.70;;;;;;5029615;28;20481;-76
2022/05/25 10:20:30;;;;;;;3.78;1.70;;;22.20;59.90;;;;;;5029590;28;20487;-78
2022/05/25 10:23:18;;;;;;;2.70;1.60;;;22.10;59.60;;;;;;5029434;28;20026;-77
2022/05/25 10:25:56;;;;;;;4.50;2.42;;;22.10;59.10;;;;;;5029268;28;20040;-74
2022/05/25 10:28:33;;;;;;;6.25;2.95;;;21.70;59.60;;;;;;5029498;28;20025;-73
2022/05/25 10:36:58;;;;;;;4.85;1.38;;;21.90;59.00;;;;;;5033111;28;20032;-75
2022/05/25 10:39:32;;;;;;;5.93;1.75;;;21.90;59.40;;;;;;5033906;28;20049;-75
2022/05/25 10:42:04;;;;;;;4.55;1.92;;;21.20;60.70;;;;;;5032794;28;20045;-75
2022/05/25 10:44:43;;;;;;;5.07;1.92;;;21.20;62.00;;;;;;5033163;28;20041;-78
2022/05/25 10:47:38;;;;;;;2.92;1.55;;;21.20;61.50;;;;;;5031795;28;20400;-77
2022/05/25 10:50:11;;;;;;;5.00;1.42;;;21.50;61.90;;;;;;5022766;28;20504;-75
2022/05/25 10:52:43;;;;;;;3.90;1.55;;;21.70;60.90;;;;;;5032936;28;20034;-81
2022/05/25 10:55:08;;;;;;;2.60;0.93;;;21.90;58.00;;;;;;5032861;28;20049;-76
2022/05/25 10:57:56;;;;;;;2.33;1.38;;;21.80;57.30;;;;;;5033121;28;20057;-75
2022/05/25 11:00:59;;;;;;;1.15;1.05;;;21.70;58.30;;;;;;5032953;28;20060;-75
2022/05/25 11:03:46;;;;;;;2.97;1.40;;;21.80;58.20;;;;;;5032915;28;20037;-75
2022/05/25 11:06:49;;;;;;;3.78;1.33;;;22.00;59.00;;;;;;5032910;28;20045;-76
2022/05/25 11:09:30;;;;;;;2.25;1.25;;;22.00;58.30;;;;;;5032724;28;20120;-77
2022/05/25 11:12:30;;;;;;;4.75;1.52;;;21.90;58.60;;;;;;5031301;28;20099;-77
2022/05/25 11:15:33;;;;;;;3.25;1.30;;;21.50;59.00;;;;;;5031265;28;20475;-77
2022/05/25 11:18:13;;;;;;;1.75;1.33;;;21.30;60.00;;;;;;5032768;28;20065;-75
2022/05/25 11:21:17;;;;;;;2.97;1.58;;;21.20;61.50;;;;;;5032442;28;20132;-73
2022/05/25 11:24:29;;;;;;;3.47;1.20;;;21.10;61.30;;;;;;5032359;28;20374;-74
2022/05/25 11:27:26;;;;;;;3.90;1.75;;;20.70;62.20;;;;;;5032296;28;20034;-75
2022/05/25 11:30:08;;;;;;;3.40;1.45;;;20.70;63.00;;;;;;5032152;28;20033;-75
2022/05/25 11:32:52;;;;;;;1.30;1.10;;;21.00;62.50;;;;;;5032249;28;20033;-73
2022/05/25 11:35:27;;;;;;;2.88;1.30;;;21.00;62.30;;;;;;5032050;28;20529;-74
2022/05/25 11:38:23;;;;;;;3.33;1.20;;;21.20;61.70;;;;;;5032092;28;20480;-72
2022/05/25 11:41:03;;;;;;;2.00;1.17;;;21.30;62.10;;;;;;5030677;28;20112;-75
2022/05/25 11:44:07;;;;;;;6.70;1.48;;;21.40;61.70;;;;;;5032154;28;20458;-83
2022/05/25 11:46:49;;;;;;;2.85;1.15;;;21.60;61.40;;;;;;5016558;28;20479;-88
2022/05/25 11:49:27;;;;;;;2.08;0.82;;;21.60;60.70;;;;;;5016870;28;20060;-75
2022/05/25 11:52:31;;;;;;;1.27;0.63;;;21.50;59.30;;;;;;5032217;28;20056;-77
2022/05/25 11:55:22;;;;;;;1.83;0.80;;;21.50;58.40;;;;;;5029805;28;20077;-74
2022/05/25 11:57:47;;;;;;;6.28;1.35;;;21.30;58.90;;;;;;5012038;28;20030;-77
2022/05/25 12:00:31;;;;;;;2.97;1.02;;;21.00;59.60;;;;;;5012491;28;20036;-79
2022/05/25 12:03:07;;;;;;;8.48;4.43;;;20.80;61.20;;;;;;5011781;28;20095;-75
2022/05/25 12:06:05;;;;;;;5.20;1.30;;;21.20;61.70;;;;;;5011047;28;20124;-79
2022/05/25 12:09:09;;;;;;;5.13;1.48;;;21.40;61.30;;;;;;5012405;28;20030;-75
2022/05/25 12:11:43;;;;;;;2.28;1.05;;;21.80;60.50;;;;;;5012338;28;20026;-75
2022/05/25 12:14:18;;;;;;;2.92;0.90;;;21.70;59.90;;;;;;5027415;28;20410;-74
2022/05/25 12:16:46;;;;;;;1.48;0.70;;;21.60;58.90;;;;;;5023868;28;20082;-77
2022/05/25 12:19:17;;;;;;;1.42;0.77;;;21.50;58.20;;;;;;5026315;28;20028;-74
2022/05/25 12:21:49;;;;;;;3.45;0.90;;;21.40;58.80;;;;;;5007366;28;20034;-75
2022/05/25 12:24:37;;;;;;;2.67;1.02;;;21.70;59.50;;;;;;5028031;28;20467;-76
2022/05/25 12:27:04;;;;;;;;;;;21.50;58.60;;;;;;5012042;28;20041;-79
2022/05/25 12:29:50;;;;;;;2.45;0.95;;;21.10;59.50;;;;;;5012041;28;19920;-76
2022/05/25 12:32:17;;;;;;;1.25;0.85;;;21.10;59.60;;;;;;5010460;28;20033;-77
2022/05/25 12:34:50;;;;;;;5.95;2.33;;;21.40;59.90;;;;;;5011784;28;20038;-78
2022/05/25 12:37:32;;;;;;;2.47;1.40;;;21.50;59.60;;;;;;5010491;28;20452;-73
2022/05/25 12:40:04;;;;;;;3.95;1.17;;;21.70;58.70;;;;;;5011326;28;20029;-75
2022/05/25 12:42:29;;;;;;;3.63;1.30;;;21.50;58.60;;;;;;5011945;28;20041;-74
2022/05/25 12:50:48;;;;;;;4.93;1.00;;;21.30;59.80;;;;;;5011414;28;20084;-76
2022/05/25 12:53:41;;;;;;;2.03;1.05;;;21.20;60.40;;;;;;5031562;28;20025;-77
2022/05/25 12:56:30;;;;;;;1.88;1.05;;;21.20;60.40;;;;;;5019433;28;20077;-74
2022/05/25 12:59:02;;;;;;;9.98;3.75;;;21.20;60.60;;;;;;5026188;28;20415;-76
2022/05/25 13:01:34;;;;;;;3.83;1.65;;;21.20;60.30;;;;;;5010731;28;20125;-76
2022/05/25 13:04:09;;;;;;;5.90;1.02;;;21.40;59.90;;;;;;5011315;28;20022;-73
2022/05/25 13:06:38;;;;;;;3.00;1.00;;;21.50;58.90;;;;;;5011845;28;20022;-82
2022/05/25 13:09:08;;;;;;;10.48;1.17;;;21.50;58.70;;;;;;5011089;28;20061;-77
2022/05/25 13:11:55;;;;;;;1.98;0.60;;;21.60;57.80;;;;;;5010961;28;20034;-75
2022/05/25 13:14:22;;;;;;;3.92;0.60;;;21.70;56.70;;;;;;5010363;28;20034;-78
2022/05/25 13:16:51;;;;;;;3.60;0.70;;;21.70;56.10;;;;;;5023795;28;20029;-75
2022/05/25 13:19:32;;;;;;;2.20;0.65;;;21.70;56.10;;;;;;5030849;28;20021;-76
2022/05/25 13:22:03;;;;;;;2.88;1.63;;;21.80;55.20;;;;;;5028428;28;20105;-79
2022/05/25 13:24:59;;;;;;;1.15;0.73;;;21.50;55.70;;;;;;5011400;28;20022;-78
2022/05/25 13:27:39;;;;;;;2.25;0.90;;;21.60;55.90;;;;;;5010114;28;20265;-75
2022/05/25 13:30:23;;;;;;;1.85;0.60;;;21.60;55.80;;;;;;5009287;28;20119;-76
2022/05/25 13:33:00;;;;;;;4.60;1.77;;;21.80;56.20;;;;;;5011183;28;20121;-78
2022/05/25 13:36:15;;;;;;;2.53;0.80;;;22.00;56.30;;;;;;5026513;28;20455;-77
2022/05/25 13:38:58;;;;;;;2.20;0.82;;;21.50;55.50;;;;;;5009819;28;20387;-77
2022/05/25 13:41:26;;;;;;;1.70;0.50;;;21.60;56.20;;;;;;5008689;28;20112;-76